createdAt,value
2022-09-03T00:00:23.034Z,38.46
2022-09-03T00:00:57.282Z,38.65
2022-09-03T00:01:38.316Z,38.62
2022-09-03T00:02:18.194Z,38.56
2022-09-03T00:02:54.617Z,38.44
2022-09-03T00:03:31.775Z,38.37
2022-09-03T00:04:20.687Z,38.83
2022-09-03T00:05:05.404Z,38.76
2022-09-03T00:05:43.149Z,38.85
2022-09-03T00:06:17.801Z,38.86
2022-09-03T00:06:52.794Z,38.43
2022-09-03T00:07:33.702Z,38.38
2022-09-03T00:08:12.025Z,38.60
2022-09-03T00:08:51.089Z,38.73
2022-09-03T00:09:26.623Z,38.59
2022-09-03T00:10:05.161Z,38.58
2022-09-03T00:10:47.200Z,38.45
2022-09-03T00:11:20.977Z,38.73
2022-09-03T00:11:58.919Z,38.77
2022-09-03T00:12:37.330Z,38.58
2022-09-03T00:13:10.769Z,38.38
2022-09-03T00:13:49.110Z,38.57
2022-09-03T00:14:24.149Z,38.38
2022-09-03T00:15:01.987Z,38.46
2022-09-03T00:15:37.486Z,38.50
2022-09-03T00:16:12.796Z,38.23
2022-09-03T00:16:50.664Z,38.14
2022-09-03T00:17:28.717Z,38.39
2022-09-03T00:18:04.962Z,38.71
2022-09-03T00:18:42.394Z,38.17
2022-09-03T00:19:21.499Z,38.45
2022-09-03T00:19:57.382Z,38.41
2022-09-03T00:20:34.318Z,38.52
2022-09-03T00:21:12.942Z,38.29
2022-09-03T00:21:47.986Z,38.39
2022-09-03T00:22:25.218Z,38.29
2022-09-03T00:23:02.036Z,38.19
2022-09-03T00:23:37.297Z,38.52
2022-09-03T00:24:14.189Z,38.56
2022-09-03T00:24:51.681Z,38.35
2022-09-03T00:25:27.706Z,38.42
2022-09-03T00:26:15.040Z,38.27
2022-09-03T00:26:55.141Z,38.14
2022-09-03T00:27:28.702Z,38.21
2022-09-03T00:28:03.545Z,38.02
2022-09-03T00:28:43.789Z,38.21
2022-09-03T00:29:17.630Z,38.44
2022-09-03T00:29:52.453Z,38.31
2022-09-03T00:30:28.082Z,38.34
2022-09-03T00:31:07.994Z,38.39
2022-09-03T00:31:43.769Z,38.07
2022-09-03T00:32:23.366Z,37.90
2022-09-03T00:32:58.102Z,38.27
2022-09-03T00:33:33.920Z,38.19
2022-09-03T00:34:11.089Z,37.97
2022-09-03T00:34:48.784Z,38.12
2022-09-03T00:35:28.215Z,38.25
2022-09-03T00:36:07.099Z,38.41
2022-09-03T00:36:42.655Z,38.16
2022-09-03T00:37:17.650Z,38.14
2022-09-03T00:37:52.024Z,38.43
2022-09-03T00:38:24.458Z,38.27
2022-09-03T00:39:00.957Z,38.03
2022-09-03T00:39:33.304Z,38.02
2022-09-03T00:40:11.498Z,38.04
2022-09-03T00:40:58.962Z,38.01
2022-09-03T00:41:34.802Z,38.17
2022-09-03T00:42:24.507Z,38.17
2022-09-03T00:43:03.008Z,38.26
2022-09-03T00:43:46.410Z,37.97
2022-09-03T00:44:36.922Z,38.05
2022-09-03T00:45:18.977Z,37.90
2022-09-03T00:45:56.300Z,38.01
2022-09-03T00:46:35.538Z,37.74
2022-09-03T00:47:11.788Z,37.98
2022-09-03T00:47:52.768Z,37.93
2022-09-03T00:48:30.722Z,38.14
2022-09-03T00:49:18.153Z,37.97
2022-09-03T00:50:04.344Z,38.12
2022-09-03T00:50:46.439Z,37.88
2022-09-03T00:51:28.454Z,38.17
2022-09-03T00:52:11.529Z,37.82
2022-09-03T00:52:49.340Z,38.14
2022-09-03T00:53:31.504Z,38.14
2022-09-03T00:54:07.123Z,37.97
2022-09-03T00:54:44.953Z,37.87
2022-09-03T00:55:28.594Z,37.79
2022-09-03T00:56:06.105Z,37.55
2022-09-03T00:56:43.165Z,37.69
2022-09-03T00:57:28.078Z,37.83
2022-09-03T00:58:12.530Z,38.07
2022-09-03T00:58:58.702Z,37.51
2022-09-03T00:59:36.570Z,37.75
2022-09-03T01:00:12.406Z,37.78
2022-09-03T01:00:48.141Z,37.83
2022-09-03T01:01:24.245Z,37.56
2022-09-03T01:02:06.141Z,37.66
2022-09-03T01:02:54.905Z,37.94
2022-09-03T01:03:34.756Z,37.78
2022-09-03T01:04:30.058Z,37.44
2022-09-03T01:05:12.210Z,37.92
2022-09-03T01:06:03.543Z,37.71
2022-09-03T01:06:41.395Z,37.36
2022-09-03T01:07:22.119Z,37.93
2022-09-03T01:08:05.092Z,37.51
2022-09-03T01:08:51.060Z,37.25
2022-09-03T01:09:36.187Z,37.32
2022-09-03T01:10:17.229Z,37.54
2022-09-03T01:10:56.126Z,37.61
2022-09-03T01:11:37.070Z,37.26
2022-09-03T01:12:14.920Z,37.26
2022-09-03T01:12:54.618Z,37.41
2022-09-03T01:13:36.276Z,37.52
2022-09-03T01:14:13.144Z,37.34
2022-09-03T01:14:56.083Z,37.29
2022-09-03T01:15:35.994Z,37.16
2022-09-03T01:16:14.395Z,37.38
2022-09-03T01:16:54.577Z,37.27
2022-09-03T01:17:34.736Z,37.51
2022-09-03T01:18:17.888Z,37.40
2022-09-03T01:18:53.497Z,37.15
2022-09-03T01:19:54.410Z,37.67
2022-09-03T01:20:53.986Z,37.34
2022-09-03T01:21:42.254Z,37.32
2022-09-03T01:22:33.619Z,37.49
2022-09-03T01:23:30.705Z,37.23
2022-09-03T01:24:31.888Z,37.16
2022-09-03T01:25:17.741Z,36.91
2022-09-03T01:25:55.953Z,37.31
2022-09-03T01:26:53.400Z,37.09
2022-09-03T01:27:35.804Z,37.32
2022-09-03T01:28:20.676Z,37.15
2022-09-03T01:29:07.630Z,37.50
2022-09-03T01:29:45.073Z,37.18
2022-09-03T01:30:19.758Z,37.17
2022-09-03T01:31:00.327Z,37.22
2022-09-03T01:31:36.476Z,37.15
2022-09-03T01:32:16.967Z,37.04
2022-09-03T01:32:53.981Z,37.07
2022-09-03T01:33:31.830Z,36.99
2022-09-03T01:34:14.356Z,37.08
2022-09-03T01:34:54.788Z,37.17
2022-09-03T01:35:35.078Z,37.18
2022-09-03T01:36:12.508Z,36.88
2022-09-03T01:36:49.282Z,36.97
2022-09-03T01:37:34.065Z,37.03
2022-09-03T01:38:16.046Z,36.86
2022-09-03T01:38:51.098Z,37.02
2022-09-03T01:39:34.990Z,37.07
2022-09-03T01:40:18.665Z,37.00
2022-09-03T01:40:56.226Z,36.78
2022-09-03T01:41:50.861Z,37.29
2022-09-03T01:42:31.909Z,36.85
2022-09-03T01:43:25.534Z,37.32
2022-09-03T01:44:04.322Z,37.16
2022-09-03T01:44:45.954Z,36.96
2022-09-03T01:45:32.976Z,36.88
2022-09-03T01:46:16.988Z,37.05
2022-09-03T01:46:52.692Z,36.76
2022-09-03T01:47:32.196Z,36.96
2022-09-03T01:48:15.222Z,36.72
2022-09-03T01:48:52.485Z,36.73
2022-09-03T01:49:33.246Z,36.87
2022-09-03T01:50:09.165Z,37.03
2022-09-03T01:50:46.047Z,37.14
2022-09-03T01:51:24.068Z,36.59
2022-09-03T01:52:01.002Z,36.76
2022-09-03T01:52:40.900Z,36.86
2022-09-03T01:53:28.472Z,37.08
2022-09-03T01:54:23.941Z,36.96
2022-09-03T01:55:11.068Z,36.69
2022-09-03T01:55:57.072Z,37.03
2022-09-03T01:56:38.770Z,37.05
2022-09-03T01:57:39.125Z,37.00
2022-09-03T01:58:14.958Z,36.66
2022-09-03T01:58:57.062Z,36.74
2022-09-03T01:59:31.088Z,36.71
2022-09-03T02:00:06.737Z,36.79
2022-09-03T02:00:49.421Z,36.98
2022-09-03T02:01:25.763Z,36.50
2022-09-03T02:02:02.070Z,36.71
2022-09-03T02:02:37.134Z,36.93
2022-09-03T02:03:11.541Z,36.83
2022-09-03T02:03:45.130Z,36.53
2022-09-03T02:04:23.355Z,36.83
2022-09-03T02:04:59.616Z,36.59
2022-09-03T02:05:35.304Z,36.53
2022-09-03T02:06:08.100Z,36.60
2022-09-03T02:06:41.229Z,36.96
2022-09-03T02:07:13.722Z,36.86
2022-09-03T02:07:51.970Z,36.83
2022-09-03T02:08:24.968Z,36.86
2022-09-03T02:08:57.314Z,36.83
2022-09-03T02:09:33.138Z,36.62
2022-09-03T02:10:09.049Z,36.84
2022-09-03T02:10:45.160Z,37.07
2022-09-03T02:11:20.245Z,37.00
2022-09-03T02:11:56.357Z,36.75
2022-09-03T02:12:33.201Z,36.80
2022-09-03T02:13:08.351Z,36.63
2022-09-03T02:13:45.394Z,36.62
2022-09-03T02:14:20.687Z,36.86
2022-09-03T02:14:53.314Z,36.83
2022-09-03T02:15:31.230Z,36.71
2022-09-03T02:16:07.980Z,36.91
2022-09-03T02:16:44.513Z,36.54
2022-09-03T02:17:16.857Z,36.65
2022-09-03T02:17:50.330Z,36.47
2022-09-03T02:18:27.214Z,36.76
2022-09-03T02:19:02.361Z,36.72
2022-09-03T02:19:35.049Z,36.70
2022-09-03T02:20:13.131Z,36.59
2022-09-03T02:20:48.072Z,36.52
2022-09-03T02:21:25.402Z,36.48
2022-09-03T02:21:58.385Z,36.93
2022-09-03T02:22:30.674Z,36.58
2022-09-03T02:23:03.206Z,36.64
2022-09-03T02:23:38.236Z,36.35
2022-09-03T02:24:10.557Z,36.49
2022-09-03T02:24:42.901Z,36.28
2022-09-03T02:25:18.141Z,36.42
2022-09-03T02:25:53.332Z,36.25
2022-09-03T02:26:25.632Z,36.55
2022-09-03T02:27:00.839Z,36.32
2022-09-03T02:27:33.176Z,36.74
2022-09-03T02:28:06.266Z,36.47
2022-09-03T02:28:51.898Z,36.54
2022-09-03T02:29:26.770Z,36.85
2022-09-03T02:30:01.032Z,36.44
2022-09-03T02:30:35.970Z,36.42
2022-09-03T02:31:08.447Z,36.20
2022-09-03T02:31:43.377Z,36.56
2022-09-03T02:32:16.471Z,36.47
2022-09-03T02:32:48.782Z,36.75
2022-09-03T02:33:23.790Z,36.44
2022-09-03T02:33:58.005Z,36.75
2022-09-03T02:34:30.461Z,36.68
2022-09-03T02:35:05.400Z,36.55
2022-09-03T02:35:37.892Z,36.54
2022-09-03T02:36:12.038Z,36.69
2022-09-03T02:36:48.822Z,36.28
2022-09-03T02:37:21.162Z,36.69
2022-09-03T02:37:53.490Z,36.37
2022-09-03T02:38:29.600Z,36.47
2022-09-03T02:39:02.206Z,36.32
2022-09-03T02:39:38.830Z,36.46
2022-09-03T02:40:14.389Z,36.59
2022-09-03T02:40:47.133Z,36.23
2022-09-03T02:41:19.830Z,36.19
2022-09-03T02:41:58.614Z,36.36
2022-09-03T02:42:31.201Z,36.63
2022-09-03T02:43:05.113Z,36.54
2022-09-03T02:43:42.966Z,36.40
2022-09-03T02:44:24.124Z,36.35
2022-09-03T02:45:04.212Z,36.39
2022-09-03T02:45:40.643Z,36.40
2022-09-03T02:46:15.626Z,36.34
2022-09-03T02:46:52.294Z,36.42
2022-09-03T02:47:32.699Z,36.62
2022-09-03T02:48:05.095Z,36.59
2022-09-03T02:48:37.717Z,36.34
2022-09-03T02:49:12.582Z,36.08
2022-09-03T02:49:46.946Z,36.42
2022-09-03T02:50:19.251Z,36.37
2022-09-03T02:50:54.397Z,36.42
2022-09-03T02:51:26.941Z,36.43
2022-09-03T02:52:01.006Z,36.34
2022-09-03T02:52:35.918Z,36.52
2022-09-03T02:53:08.698Z,36.43
2022-09-03T02:53:41.164Z,36.17
2022-09-03T02:54:20.733Z,36.30
2022-09-03T02:54:53.392Z,36.59
2022-09-03T02:55:25.657Z,36.05
2022-09-03T02:56:04.518Z,36.45
2022-09-03T02:56:37.469Z,36.19
2022-09-03T02:57:10.778Z,36.30
2022-09-03T02:57:45.654Z,36.31
2022-09-03T02:58:17.970Z,36.00
2022-09-03T02:58:50.268Z,36.24
2022-09-03T02:59:28.340Z,36.23
2022-09-03T03:00:04.613Z,36.06
2022-09-03T03:00:37.438Z,36.23
2022-09-03T03:01:16.271Z,36.33
2022-09-03T03:01:56.487Z,36.33
2022-09-03T03:02:33.393Z,36.39
2022-09-03T03:03:09.672Z,36.03
2022-09-03T03:03:41.978Z,36.59
2022-09-03T03:04:14.450Z,36.35
2022-09-03T03:04:49.351Z,36.23
2022-09-03T03:05:26.805Z,36.05
2022-09-03T03:06:01.369Z,36.54
2022-09-03T03:06:36.342Z,36.36
2022-09-03T03:07:09.089Z,36.16
2022-09-03T03:07:41.569Z,36.30
2022-09-03T03:08:21.293Z,36.52
2022-09-03T03:08:56.265Z,36.30
2022-09-03T03:09:29.096Z,36.52
2022-09-03T03:10:03.986Z,36.45
2022-09-03T03:10:38.288Z,36.22
2022-09-03T03:11:10.639Z,36.51
2022-09-03T03:11:45.622Z,36.15
2022-09-03T03:12:17.934Z,36.01
2022-09-03T03:12:50.229Z,36.45
2022-09-03T03:13:25.189Z,35.98
2022-09-03T03:13:57.529Z,36.25
2022-09-03T03:14:29.829Z,36.45
2022-09-03T03:15:08.138Z,36.30
2022-09-03T03:15:40.601Z,36.30
2022-09-03T03:16:14.295Z,36.27
2022-09-03T03:16:49.269Z,36.19
2022-09-03T03:17:21.637Z,36.19
2022-09-03T03:17:56.308Z,36.20
2022-09-03T03:18:31.289Z,36.12
2022-09-03T03:19:03.929Z,36.28
2022-09-03T03:19:36.273Z,36.17
2022-09-03T03:20:12.590Z,36.24
2022-09-03T03:20:45.269Z,36.15
2022-09-03T03:21:19.143Z,36.20
2022-09-03T03:21:54.081Z,36.02
2022-09-03T03:22:26.429Z,36.28
2022-09-03T03:22:58.770Z,36.23
2022-09-03T03:23:35.053Z,36.53
2022-09-03T03:24:08.107Z,36.08
2022-09-03T03:24:40.966Z,36.53
2022-09-03T03:25:15.857Z,35.99
2022-09-03T03:25:49.514Z,36.46
2022-09-03T03:26:23.271Z,36.25
2022-09-03T03:27:00.457Z,35.97
2022-09-03T03:27:32.778Z,36.13
2022-09-03T03:28:05.432Z,36.59
2022-09-03T03:28:42.549Z,36.48
2022-09-03T03:29:17.637Z,36.45
2022-09-03T03:29:50.815Z,36.35
2022-09-03T03:30:28.385Z,36.23
2022-09-03T03:31:06.145Z,36.01
2022-09-03T03:31:38.509Z,36.45
2022-09-03T03:32:10.817Z,36.23
2022-09-03T03:32:45.657Z,36.37
2022-09-03T03:33:17.974Z,36.16
2022-09-03T03:33:52.393Z,36.18
2022-09-03T03:34:27.433Z,36.11
2022-09-03T03:34:59.737Z,36.42
2022-09-03T03:35:32.055Z,36.27
2022-09-03T03:36:09.902Z,36.20
2022-09-03T03:36:42.225Z,36.48
2022-09-03T03:37:17.166Z,36.01
2022-09-03T03:37:49.613Z,36.18
2022-09-03T03:38:21.937Z,35.93
2022-09-03T03:38:58.084Z,36.10
2022-09-03T03:39:30.454Z,36.15
2022-09-03T03:40:03.327Z,36.20
2022-09-03T03:40:38.310Z,36.16
2022-09-03T03:41:11.705Z,36.08
2022-09-03T03:41:44.050Z,36.22
2022-09-03T03:42:19.013Z,36.11
2022-09-03T03:42:51.293Z,35.95
2022-09-03T03:43:23.653Z,35.87
2022-09-03T03:44:00.241Z,36.34
2022-09-03T03:44:32.542Z,36.17
2022-09-03T03:45:05.925Z,36.13
2022-09-03T03:45:43.465Z,36.30
2022-09-03T03:46:15.931Z,36.50
2022-09-03T03:46:48.342Z,36.15
2022-09-03T03:47:23.253Z,36.25
2022-09-03T03:47:58.374Z,36.21
2022-09-03T03:48:30.727Z,36.42
2022-09-03T03:49:06.555Z,36.43
2022-09-03T03:49:39.216Z,36.02
2022-09-03T03:50:11.566Z,36.50
2022-09-03T03:50:43.873Z,36.33
2022-09-03T03:51:18.834Z,36.15
2022-09-03T03:51:51.173Z,36.02
2022-09-03T03:52:25.172Z,36.11
2022-09-03T03:53:03.350Z,36.06
2022-09-03T03:53:37.944Z,36.25
2022-09-03T03:54:10.266Z,36.30
2022-09-03T03:54:49.545Z,36.24
2022-09-03T03:55:21.911Z,36.57
2022-09-03T03:55:57.869Z,35.98
2022-09-03T03:56:32.749Z,36.17
2022-09-03T03:57:05.133Z,36.44
2022-09-03T03:57:37.446Z,36.17
2022-09-03T03:58:12.538Z,36.25
2022-09-03T03:58:45.362Z,36.00
2022-09-03T03:59:20.290Z,35.88
2022-09-03T03:59:52.536Z,35.81
2022-09-03T04:00:24.837Z,36.13
2022-09-03T04:01:08.009Z,36.01
2022-09-03T04:01:40.382Z,36.02
2022-09-03T04:02:12.963Z,36.25
2022-09-03T04:02:47.918Z,35.96
2022-09-03T04:03:20.702Z,36.11
2022-09-03T04:03:57.625Z,36.27
2022-09-03T04:04:29.937Z,36.09
2022-09-03T04:05:02.253Z,36.01
2022-09-03T04:05:40.787Z,36.14
2022-09-03T04:06:21.481Z,36.13
2022-09-03T04:06:53.758Z,36.29
2022-09-03T04:07:28.686Z,36.35
2022-09-03T04:08:02.626Z,36.30
2022-09-03T04:08:36.545Z,36.00
2022-09-03T04:09:11.717Z,36.46
2022-09-03T04:09:44.050Z,36.47
2022-09-03T04:10:16.490Z,36.24
2022-09-03T04:10:49.542Z,36.30
2022-09-03T04:11:25.790Z,36.60
2022-09-03T04:11:58.140Z,36.35
2022-09-03T04:12:30.427Z,36.03
2022-09-03T04:13:05.315Z,36.11
2022-09-03T04:13:38.582Z,36.51
2022-09-03T04:14:10.888Z,36.15
2022-09-03T04:14:45.833Z,36.23
2022-09-03T04:15:18.132Z,36.49
2022-09-03T04:15:50.377Z,36.28
2022-09-03T04:16:29.743Z,36.42
2022-09-03T04:17:03.199Z,36.68
2022-09-03T04:17:35.560Z,36.52
2022-09-03T04:18:08.574Z,36.57
2022-09-03T04:18:44.096Z,36.52
2022-09-03T04:19:16.422Z,36.52
2022-09-03T04:19:49.806Z,36.54
2022-09-03T04:20:24.716Z,36.15
2022-09-03T04:21:04.386Z,36.39
2022-09-03T04:21:39.530Z,36.35
2022-09-03T04:22:12.361Z,36.51
2022-09-03T04:22:44.654Z,36.57
2022-09-03T04:23:16.963Z,36.53
2022-09-03T04:23:52.586Z,36.25
2022-09-03T04:24:24.885Z,36.59
2022-09-03T04:24:57.228Z,36.40
2022-09-03T04:25:32.276Z,36.40
2022-09-03T04:26:05.474Z,36.75
2022-09-03T04:26:39.107Z,36.18
2022-09-03T04:27:13.984Z,36.32
2022-09-03T04:27:46.881Z,36.30
2022-09-03T04:28:19.242Z,36.56
2022-09-03T04:28:54.267Z,36.64
2022-09-03T04:29:26.605Z,36.47
2022-09-03T04:29:58.940Z,36.65
2022-09-03T04:30:31.687Z,36.59
2022-09-03T04:31:08.225Z,36.71
2022-09-03T04:32:04.293Z,36.56
2022-09-03T04:32:52.543Z,36.89
2022-09-03T04:33:28.379Z,36.37
2022-09-03T04:34:00.698Z,36.40
2022-09-03T04:34:33.082Z,36.53
2022-09-03T04:35:08.916Z,36.53
2022-09-03T04:35:42.193Z,36.69
2022-09-03T04:36:16.790Z,36.63
2022-09-03T04:36:53.019Z,36.96
2022-09-03T04:37:25.390Z,36.81
2022-09-03T04:37:58.537Z,36.64
2022-09-03T04:38:33.434Z,36.47
2022-09-03T04:39:05.701Z,36.97
2022-09-03T04:39:38.065Z,37.03
2022-09-03T04:40:13.790Z,36.83
2022-09-03T04:40:52.608Z,36.59
2022-09-03T04:41:26.302Z,36.51
2022-09-03T04:42:01.257Z,36.54
2022-09-03T04:42:33.825Z,36.76
2022-09-03T04:43:07.001Z,36.64
2022-09-03T04:43:43.489Z,36.95
2022-09-03T04:44:16.716Z,36.88
2022-09-03T04:44:49.023Z,37.02
2022-09-03T04:45:23.893Z,36.86
2022-09-03T04:45:59.656Z,36.69
2022-09-03T04:46:33.650Z,36.95
2022-09-03T04:47:11.449Z,36.94
2022-09-03T04:47:43.978Z,36.87
2022-09-03T04:48:16.330Z,37.00
2022-09-03T04:48:52.815Z,36.72
2022-09-03T04:49:25.536Z,36.83
2022-09-03T04:49:57.894Z,37.03
2022-09-03T04:50:35.755Z,37.00
2022-09-03T04:51:09.401Z,37.08
2022-09-03T04:51:42.105Z,37.11
2022-09-03T04:52:17.242Z,36.81
2022-09-03T04:52:49.557Z,37.07
2022-09-03T04:53:22.873Z,37.10
2022-09-03T04:54:00.327Z,37.11
2022-09-03T04:54:32.629Z,37.36
2022-09-03T04:55:06.818Z,37.05
2022-09-03T04:55:41.701Z,36.94
2022-09-03T04:56:15.117Z,37.30
2022-09-03T04:56:47.454Z,37.24
2022-09-03T04:57:23.558Z,37.03
2022-09-03T04:57:56.052Z,36.96
2022-09-03T04:58:31.508Z,37.30
2022-09-03T04:59:06.169Z,37.12
2022-09-03T04:59:38.954Z,37.34
2022-09-03T05:00:18.247Z,37.38
2022-09-03T05:00:51.485Z,37.17
2022-09-03T05:01:25.785Z,37.42
2022-09-03T05:02:02.052Z,37.12
2022-09-03T05:02:37.012Z,37.44
2022-09-03T05:03:10.158Z,37.58
2022-09-03T05:03:42.470Z,37.44
2022-09-03T05:04:17.358Z,37.69
2022-09-03T05:04:49.681Z,37.49
2022-09-03T05:05:22.014Z,37.65
2022-09-03T05:05:57.748Z,37.44
2022-09-03T05:06:31.109Z,37.28
2022-09-03T05:07:03.525Z,37.53
2022-09-03T05:07:38.857Z,37.68
2022-09-03T05:08:11.582Z,37.65
2022-09-03T05:08:44.154Z,37.53
2022-09-03T05:09:19.041Z,37.56
2022-09-03T05:09:51.370Z,37.88
2022-09-03T05:10:24.226Z,37.87
2022-09-03T05:11:00.242Z,37.49
2022-09-03T05:11:35.195Z,37.51
2022-09-03T05:12:08.160Z,37.79
2022-09-03T05:12:40.469Z,37.68
2022-09-03T05:13:15.436Z,37.68
2022-09-03T05:13:49.316Z,37.77
2022-09-03T05:14:21.597Z,37.54
2022-09-03T05:14:56.524Z,37.65
2022-09-03T05:15:29.473Z,37.61
2022-09-03T05:16:02.483Z,37.68
2022-09-03T05:16:37.447Z,37.62
2022-09-03T05:17:09.857Z,37.28
2022-09-03T05:17:44.770Z,37.78
2022-09-03T05:18:19.759Z,37.54
2022-09-03T05:18:53.093Z,37.75
2022-09-03T05:19:25.793Z,37.37
2022-09-03T05:19:58.273Z,37.54
2022-09-03T05:20:33.961Z,37.85
2022-09-03T05:21:08.038Z,37.56
2022-09-03T05:21:40.342Z,37.54
2022-09-03T05:22:21.404Z,37.62
2022-09-03T05:22:53.693Z,37.88
2022-09-03T05:23:26.313Z,37.43
2022-09-03T05:24:03.114Z,38.03
2022-09-03T05:24:35.476Z,37.49
2022-09-03T05:25:08.749Z,37.92
2022-09-03T05:25:43.665Z,37.55
2022-09-03T05:26:18.058Z,37.58
2022-09-03T05:26:53.022Z,37.48
2022-09-03T05:27:25.393Z,37.95
2022-09-03T05:27:58.073Z,37.88
2022-09-03T05:28:33.853Z,37.54
2022-09-03T05:29:07.916Z,37.49
2022-09-03T05:29:40.755Z,37.56
2022-09-03T05:30:16.237Z,38.04
2022-09-03T05:30:48.530Z,37.75
2022-09-03T05:31:21.313Z,37.60
2022-09-03T05:31:56.317Z,37.73
2022-09-03T05:32:31.182Z,38.07
2022-09-03T05:33:06.241Z,38.10
2022-09-03T05:33:44.445Z,37.61
2022-09-03T05:34:18.212Z,37.88
2022-09-03T05:34:53.593Z,38.14
2022-09-03T05:35:27.923Z,37.83
2022-09-03T05:36:04.093Z,37.90
2022-09-03T05:36:40.363Z,37.68
2022-09-03T05:37:12.950Z,37.77
2022-09-03T05:37:45.402Z,37.83
2022-09-03T05:38:18.097Z,38.06
2022-09-03T05:38:54.310Z,37.95
2022-09-03T05:39:26.617Z,37.89
2022-09-03T05:40:01.583Z,38.14
2022-09-03T05:40:33.972Z,38.07
2022-09-03T05:41:08.172Z,38.13
2022-09-03T05:41:43.073Z,38.15
2022-09-03T05:42:15.403Z,38.18
2022-09-03T05:42:47.798Z,38.00
2022-09-03T05:43:22.927Z,38.32
2022-09-03T05:43:56.804Z,38.29
2022-09-03T05:44:30.334Z,38.02
2022-09-03T05:45:05.234Z,37.96
2022-09-03T05:45:37.633Z,38.26
2022-09-03T05:46:12.246Z,38.10
2022-09-03T05:46:47.258Z,38.08
2022-09-03T05:47:19.550Z,38.35
2022-09-03T05:47:51.854Z,38.31
2022-09-03T05:48:29.503Z,38.17
2022-09-03T05:49:02.683Z,38.17
2022-09-03T05:49:34.984Z,38.36
2022-09-03T05:50:11.752Z,38.17
2022-09-03T05:50:44.065Z,37.85
2022-09-03T05:51:18.320Z,38.34
2022-09-03T05:51:53.214Z,38.14
2022-09-03T05:52:25.481Z,38.39
2022-09-03T05:52:59.358Z,38.15
2022-09-03T05:53:36.662Z,38.26
2022-09-03T05:54:09.375Z,38.24
2022-09-03T05:54:42.206Z,38.23
2022-09-03T05:55:17.301Z,38.51
2022-09-03T05:55:56.048Z,38.31
2022-09-03T05:56:30.097Z,38.20
2022-09-03T05:57:05.108Z,38.19
2022-09-03T05:57:37.458Z,38.52
2022-09-03T05:58:09.758Z,38.56
2022-09-03T05:58:46.294Z,38.20
2022-09-03T05:59:19.604Z,38.39
2022-09-03T05:59:52.438Z,38.31
2022-09-03T06:00:27.449Z,38.36
2022-09-03T06:00:59.832Z,38.20
2022-09-03T06:01:34.098Z,38.21
2022-09-03T06:02:09.756Z,38.47
2022-09-03T06:02:44.567Z,38.24
2022-09-03T06:03:17.131Z,38.10
2022-09-03T06:03:58.568Z,38.44
2022-09-03T06:04:30.852Z,38.23
2022-09-03T06:05:03.242Z,38.32
2022-09-03T06:05:38.129Z,38.61
2022-09-03T06:06:11.284Z,38.35
2022-09-03T06:06:45.239Z,38.60
2022-09-03T06:07:21.098Z,38.13
2022-09-03T06:07:53.401Z,38.62
2022-09-03T06:08:26.573Z,38.53
2022-09-03T06:09:03.086Z,38.41
2022-09-03T06:09:35.400Z,38.48
2022-09-03T06:10:08.629Z,38.40
2022-09-03T06:10:45.030Z,38.34
2022-09-03T06:11:17.537Z,38.39
2022-09-03T06:11:50.102Z,38.52
2022-09-03T06:12:25.257Z,38.56
2022-09-03T06:12:58.034Z,38.25
2022-09-03T06:13:30.426Z,38.79
2022-09-03T06:14:07.764Z,38.16
2022-09-03T06:14:40.053Z,38.25
2022-09-03T06:15:12.442Z,38.27
2022-09-03T06:15:47.333Z,38.51
2022-09-03T06:16:19.653Z,38.71
2022-09-03T06:17:05.529Z,38.64
2022-09-03T06:17:38.450Z,38.29
2022-09-03T06:18:10.813Z,38.58
2022-09-03T06:18:45.714Z,38.57
2022-09-03T06:19:20.869Z,38.53
2022-09-03T06:19:55.813Z,38.58
2022-09-03T06:20:29.597Z,38.27
2022-09-03T06:21:03.743Z,38.77
2022-09-03T06:21:40.162Z,38.52
2022-09-03T06:22:12.648Z,38.54
2022-09-03T06:22:49.238Z,38.69
2022-09-03T06:23:24.177Z,38.52
2022-09-03T06:23:59.521Z,38.92
2022-09-03T06:24:35.066Z,38.71
2022-09-03T06:25:09.960Z,38.41
2022-09-03T06:25:42.304Z,38.22
2022-09-03T06:26:17.808Z,38.59
2022-09-03T06:26:50.466Z,38.85
2022-09-03T06:27:25.421Z,38.57
2022-09-03T06:27:57.730Z,38.36
2022-09-03T06:28:30.953Z,38.26
2022-09-03T06:29:05.854Z,38.72
2022-09-03T06:29:40.035Z,38.29
2022-09-03T06:30:14.039Z,38.64
2022-09-03T06:30:48.949Z,38.61
2022-09-03T06:31:21.900Z,38.43
2022-09-03T06:31:57.337Z,38.62
2022-09-03T06:32:29.995Z,38.82
2022-09-03T06:33:02.289Z,38.58
2022-09-03T06:33:38.491Z,38.41
2022-09-03T06:34:10.756Z,38.85
2022-09-03T06:34:50.094Z,38.54
2022-09-03T06:35:22.471Z,38.32
2022-09-03T06:35:58.164Z,38.92
2022-09-03T06:36:33.133Z,38.56
2022-09-03T06:37:05.425Z,38.44
2022-09-03T06:37:40.100Z,38.92
2022-09-03T06:38:15.594Z,38.87
2022-09-03T06:38:48.357Z,38.48
2022-09-03T06:39:23.320Z,38.57
2022-09-03T06:39:56.283Z,38.68
2022-09-03T06:40:28.965Z,38.77
2022-09-03T06:41:02.878Z,38.52
2022-09-03T06:41:37.762Z,39.11
2022-09-03T06:42:10.057Z,38.91
2022-09-03T06:42:46.038Z,38.97
2022-09-03T06:43:21.555Z,38.82
2022-09-03T06:43:55.186Z,38.63
2022-09-03T06:44:30.800Z,38.52
2022-09-03T06:45:03.130Z,38.65
2022-09-03T06:45:38.406Z,38.81
2022-09-03T06:46:12.497Z,39.00
2022-09-03T06:46:48.598Z,38.85
2022-09-03T06:47:20.908Z,38.88
2022-09-03T06:47:54.454Z,38.95
2022-09-03T06:48:29.749Z,38.82
2022-09-03T06:49:02.530Z,38.75
2022-09-03T06:49:38.881Z,38.65
2022-09-03T06:50:13.910Z,38.88
2022-09-03T06:50:54.231Z,38.82
2022-09-03T06:51:30.485Z,38.86
2022-09-03T06:52:03.625Z,38.95
2022-09-03T06:52:35.969Z,38.64
2022-09-03T06:53:11.050Z,39.15
2022-09-03T06:53:44.933Z,38.72
2022-09-03T06:54:19.798Z,38.95
2022-09-03T06:54:52.154Z,38.74
2022-09-03T06:55:24.654Z,38.97
2022-09-03T06:56:01.346Z,38.90
2022-09-03T06:56:39.628Z,39.02
2022-09-03T06:57:15.314Z,39.07
2022-09-03T06:57:47.648Z,38.97
2022-09-03T06:58:29.267Z,39.19
2022-09-03T06:59:07.989Z,39.08
2022-09-03T06:59:40.305Z,39.26
2022-09-03T07:00:14.619Z,39.23
2022-09-03T07:00:49.899Z,39.06
2022-09-03T07:01:23.974Z,39.32
2022-09-03T07:02:00.906Z,39.26
2022-09-03T07:02:33.785Z,39.29
2022-09-03T07:03:07.122Z,39.07
2022-09-03T07:03:43.625Z,39.38
2022-09-03T07:04:19.133Z,39.17
2022-09-03T07:04:54.347Z,39.15
2022-09-03T07:05:30.677Z,38.86
2022-09-03T07:06:03.794Z,39.16
2022-09-03T07:06:37.577Z,39.47
2022-09-03T07:07:14.146Z,38.87
2022-09-03T07:07:46.432Z,39.15
2022-09-03T07:08:18.844Z,39.13
2022-09-03T07:08:54.507Z,39.54
2022-09-03T07:09:27.126Z,39.50
2022-09-03T07:10:02.085Z,39.21
2022-09-03T07:10:37.531Z,39.25
2022-09-03T07:11:11.371Z,38.87
2022-09-03T07:11:49.847Z,39.53
2022-09-03T07:12:22.172Z,39.19
2022-09-03T07:12:56.026Z,39.36
2022-09-03T07:13:31.126Z,39.31
2022-09-03T07:14:04.657Z,39.36
2022-09-03T07:14:39.574Z,39.14
2022-09-03T07:15:12.583Z,39.19
2022-09-03T07:15:45.062Z,39.48
2022-09-03T07:16:21.427Z,39.14
2022-09-03T07:16:53.819Z,39.38
2022-09-03T07:17:26.126Z,39.55
2022-09-03T07:18:01.102Z,39.17
2022-09-03T07:18:33.713Z,39.72
2022-09-03T07:19:09.369Z,39.43
2022-09-03T07:19:41.684Z,39.32
2022-09-03T07:20:16.765Z,39.31
2022-09-03T07:20:51.665Z,39.53
2022-09-03T07:21:27.869Z,39.70
2022-09-03T07:22:00.990Z,39.50
2022-09-03T07:22:35.885Z,39.55
2022-09-03T07:23:08.233Z,39.68
2022-09-03T07:23:41.064Z,39.37
2022-09-03T07:24:16.153Z,39.36
2022-09-03T07:24:48.474Z,39.82
2022-09-03T07:25:20.833Z,39.58
2022-09-03T07:25:57.393Z,39.70
2022-09-03T07:26:31.643Z,39.57
2022-09-03T07:27:11.785Z,39.60
2022-09-03T07:27:47.445Z,39.48
2022-09-03T07:28:19.775Z,39.93
2022-09-03T07:28:55.862Z,39.90
2022-09-03T07:29:28.936Z,39.76
2022-09-03T07:30:01.233Z,39.89
2022-09-03T07:30:36.097Z,39.71
2022-09-03T07:31:13.025Z,40.00
2022-09-03T07:31:45.382Z,39.87
2022-09-03T07:32:20.313Z,39.57
2022-09-03T07:32:54.158Z,39.97
2022-09-03T07:33:26.516Z,39.99
2022-09-03T07:34:04.097Z,39.82
2022-09-03T07:34:37.437Z,39.88
2022-09-03T07:35:10.298Z,39.77
2022-09-03T07:35:45.206Z,39.77
2022-09-03T07:36:20.065Z,39.82
2022-09-03T07:36:55.102Z,39.67
2022-09-03T07:37:27.482Z,39.75
2022-09-03T07:37:59.901Z,40.09
2022-09-03T07:38:34.862Z,39.60
2022-09-03T07:39:07.252Z,40.23
2022-09-03T07:39:42.190Z,39.96
2022-09-03T07:40:18.306Z,39.99
2022-09-03T07:40:59.249Z,40.14
2022-09-03T07:41:35.502Z,40.11